sensor_id;sensor_type;location;lat;lon;timestamp;P1;durP1;ratioP1;P2;durP2;ratioP2
67902;SDS011;54708;43.612;1.568;2024-03-23T00:53:07;13.95;;;9.05;;
67902;SDS011;54708;43.612;1.568;2024-03-23T00:55:33;9.38;;;7.43;;
67902;SDS011;54708;43.612;1.568;2024-03-23T00:57:58;12.00;;;8.38;;
67902;SDS011;54708;43.612;1.568;2024-03-23T01:00:24;9.85;;;7.65;;
67902;SDS011;54708;43.612;1.568;2024-03-23T01:02:49;10.95;;;8.30;;
67902;SDS011;54708;43.612;1.568;2024-03-23T01:05:15;13.20;;;7.82;;
67902;SDS011;54708;43.612;1.568;2024-03-23T01:07:40;14.43;;;7.93;;
67902;SDS011;54708;43.612;1.568;2024-03-23T01:10:05;10.77;;;7.45;;
67902;SDS011;54708;43.612;1.568;2024-03-23T01:12:31;13.82;;;8.32;;
67902;SDS011;54708;43.612;1.568;2024-03-23T01:14:56;10.23;;;7.72;;
67902;SDS011;54708;43.612;1.568;2024-03-23T01:17:22;13.20;;;8.52;;
67902;SDS011;54708;43.612;1.568;2024-03-23T01:19:47;16.70;;;8.20;;
67902;SDS011;54708;43.612;1.568;2024-03-23T01:22:12;20.63;;;9.05;;
67902;SDS011;54708;43.612;1.568;2024-03-23T01:24:38;11.75;;;8.07;;
67902;SDS011;54708;43.612;1.568;2024-03-23T01:27:03;10.98;;;8.45;;
67902;SDS011;54708;43.612;1.568;2024-03-23T01:29:29;17.00;;;9.32;;
67902;SDS011;54708;43.612;1.568;2024-03-23T01:31:54;11.00;;;8.15;;
67902;SDS011;54708;43.612;1.568;2024-03-23T01:34:20;11.65;;;9.05;;
67902;SDS011;54708;43.612;1.568;2024-03-23T01:36:46;12.63;;;8.93;;
67902;SDS011;54708;43.612;1.568;2024-03-23T01:39:11;16.05;;;9.23;;
67902;SDS011;54708;43.612;1.568;2024-03-23T01:41:37;12.15;;;9.05;;
67902;SDS011;54708;43.612;1.568;2024-03-23T01:44:05;15.75;;;9.30;;
67902;SDS011;54708;43.612;1.568;2024-03-23T01:46:37;17.23;;;9.48;;
67902;SDS011;54708;43.612;1.568;2024-03-23T01:49:03;14.52;;;9.65;;
67902;SDS011;54708;43.612;1.568;2024-03-23T01:51:29;17.02;;;9.25;;
67902;SDS011;54708;43.612;1.568;2024-03-23T01:53:55;14.55;;;9.48;;
67902;SDS011;54708;43.612;1.568;2024-03-23T01:56:21;11.45;;;8.50;;
67902;SDS011;54708;43.612;1.568;2024-03-23T01:58:47;14.25;;;8.20;;
67902;SDS011;54708;43.612;1.568;2024-03-23T02:01:12;10.82;;;7.18;;
67902;SDS011;54708;43.612;1.568;2024-03-23T02:03:37;11.30;;;7.82;;
67902;SDS011;54708;43.612;1.568;2024-03-23T02:06:03;11.93;;;9.23;;
67902;SDS011;54708;43.612;1.568;2024-03-23T02:08:28;13.65;;;8.40;;
67902;SDS011;54708;43.612;1.568;2024-03-23T02:10:54;10.35;;;8.10;;
67902;SDS011;54708;43.612;1.568;2024-03-23T02:13:20;10.05;;;8.25;;
67902;SDS011;54708;43.612;1.568;2024-03-23T02:15:46;10.10;;;7.35;;
67902;SDS011;54708;43.612;1.568;2024-03-23T02:18:11;12.20;;;8.10;;
67902;SDS011;54708;43.612;1.568;2024-03-23T02:20:37;13.70;;;7.32;;
67902;SDS011;54708;43.612;1.568;2024-03-23T02:23:03;10.60;;;7.18;;
67902;SDS011;54708;43.612;1.568;2024-03-23T02:25:31;9.00;;;6.13;;
67902;SDS011;54708;43.612;1.568;2024-03-23T02:27:56;10.35;;;6.57;;
67902;SDS011;54708;43.612;1.568;2024-03-23T02:30:23;10.93;;;6.22;;
67902;SDS011;54708;43.612;1.568;2024-03-23T02:32:49;8.82;;;5.78;;
67902;SDS011;54708;43.612;1.568;2024-03-23T02:35:14;11.32;;;6.32;;
67902;SDS011;54708;43.612;1.568;2024-03-23T02:37:40;7.10;;;5.57;;
67902;SDS011;54708;43.612;1.568;2024-03-23T02:40:05;7.18;;;5.50;;
67902;SDS011;54708;43.612;1.568;2024-03-23T02:42:31;11.05;;;5.80;;
67902;SDS011;54708;43.612;1.568;2024-03-23T02:44:57;8.80;;;5.65;;
67902;SDS011;54708;43.612;1.568;2024-03-23T02:47:23;15.45;;;6.90;;
67902;SDS011;54708;43.612;1.568;2024-03-23T02:49:49;7.32;;;5.05;;
67902;SDS011;54708;43.612;1.568;2024-03-23T02:52:14;10.95;;;5.63;;
67902;SDS011;54708;43.612;1.568;2024-03-23T02:54:40;12.98;;;5.47;;
67902;SDS011;54708;43.612;1.568;2024-03-23T02:57:07;8.70;;;5.18;;
67902;SDS011;54708;43.612;1.568;2024-03-23T02:59:32;7.65;;;6.13;;
67902;SDS011;54708;43.612;1.568;2024-03-23T03:01:58;10.88;;;5.47;;
67902;SDS011;54708;43.612;1.568;2024-03-23T03:04:25;7.25;;;4.90;;
67902;SDS011;54708;43.612;1.568;2024-03-23T03:06:50;9.45;;;4.90;;
67902;SDS011;54708;43.612;1.568;2024-03-23T03:09:15;10.68;;;5.45;;
67902;SDS011;54708;43.612;1.568;2024-03-23T03:11:41;6.53;;;4.25;;
67902;SDS011;54708;43.612;1.568;2024-03-23T03:14:06;5.38;;;4.38;;
67902;SDS011;54708;43.612;1.568;2024-03-23T03:16:33;15.43;;;6.63;;
67902;SDS011;54708;43.612;1.568;2024-03-23T03:18:58;10.60;;;4.93;;
67902;SDS011;54708;43.612;1.568;2024-03-23T03:21:24;8.15;;;4.53;;
67902;SDS011;54708;43.612;1.568;2024-03-23T03:23:49;6.63;;;4.65;;
67902;SDS011;54708;43.612;1.568;2024-03-23T03:26:17;6.70;;;4.25;;
67902;SDS011;54708;43.612;1.568;2024-03-23T03:28:43;7.25;;;4.03;;
67902;SDS011;54708;43.612;1.568;2024-03-23T03:31:10;5.68;;;4.22;;
67902;SDS011;54708;43.612;1.568;2024-03-23T03:33:35;6.95;;;4.53;;
67902;SDS011;54708;43.612;1.568;2024-03-23T03:36:00;9.63;;;3.80;;
67902;SDS011;54708;43.612;1.568;2024-03-23T03:38:26;6.45;;;3.90;;
67902;SDS011;54708;43.612;1.568;2024-03-23T03:40:51;7.88;;;3.55;;
67902;SDS011;54708;43.612;1.568;2024-03-23T03:43:17;10.52;;;4.10;;
67902;SDS011;54708;43.612;1.568;2024-03-23T03:45:43;12.55;;;3.92;;
67902;SDS011;54708;43.612;1.568;2024-03-23T03:48:16;10.32;;;3.90;;
67902;SDS011;54708;43.612;1.568;2024-03-23T03:50:42;10.60;;;5.40;;
67902;SDS011;54708;43.612;1.568;2024-03-23T03:53:07;9.18;;;3.88;;
67902;SDS011;54708;43.612;1.568;2024-03-23T03:55:32;7.18;;;3.65;;
67902;SDS011;54708;43.612;1.568;2024-03-23T03:57:58;5.93;;;3.58;;
67902;SDS011;54708;43.612;1.568;2024-03-23T04:00:23;5.90;;;3.67;;
67902;SDS011;54708;43.612;1.568;2024-03-23T04:02:48;12.20;;;4.35;;
67902;SDS011;54708;43.612;1.568;2024-03-23T04:05:14;8.50;;;4.85;;
67902;SDS011;54708;43.612;1.568;2024-03-23T04:07:39;9.88;;;3.83;;
67902;SDS011;54708;43.612;1.568;2024-03-23T04:10:05;8.73;;;4.28;;
67902;SDS011;54708;43.612;1.568;2024-03-23T04:12:32;6.28;;;3.47;;
67902;SDS011;54708;43.612;1.568;2024-03-23T04:14:58;6.93;;;4.40;;
67902;SDS011;54708;43.612;1.568;2024-03-23T04:17:24;7.30;;;5.10;;
67902;SDS011;54708;43.612;1.568;2024-03-23T04:19:50;9.65;;;3.53;;
67902;SDS011;54708;43.612;1.568;2024-03-23T04:22:17;8.45;;;4.72;;
67902;SDS011;54708;43.612;1.568;2024-03-23T04:24:42;8.45;;;3.50;;
67902;SDS011;54708;43.612;1.568;2024-03-23T04:27:08;7.68;;;3.28;;
67902;SDS011;54708;43.612;1.568;2024-03-23T04:29:33;6.57;;;3.53;;
67902;SDS011;54708;43.612;1.568;2024-03-23T04:31:59;10.82;;;3.08;;
67902;SDS011;54708;43.612;1.568;2024-03-23T04:34:24;10.77;;;4.20;;
67902;SDS011;54708;43.612;1.568;2024-03-23T04:36:50;10.38;;;3.67;;
67902;SDS011;54708;43.612;1.568;2024-03-23T04:39:15;8.82;;;3.33;;
67902;SDS011;54708;43.612;1.568;2024-03-23T04:41:40;5.20;;;3.33;;
67902;SDS011;54708;43.612;1.568;2024-03-23T04:44:06;8.13;;;3.03;;
67902;SDS011;54708;43.612;1.568;2024-03-23T04:46:31;6.80;;;3.25;;
67902;SDS011;54708;43.612;1.568;2024-03-23T04:48:57;5.47;;;2.83;;
67902;SDS011;54708;43.612;1.568;2024-03-23T04:51:22;10.70;;;3.30;;
67902;SDS011;54708;43.612;1.568;2024-03-23T04:53:48;6.35;;;2.60;;
67902;SDS011;54708;43.612;1.568;2024-03-23T04:56:14;8.05;;;3.53;;
67902;SDS011;54708;43.612;1.568;2024-03-23T04:58:40;8.13;;;2.97;;
67902;SDS011;54708;43.612;1.568;2024-03-23T05:01:06;4.13;;;2.50;;
67902;SDS011;54708;43.612;1.568;2024-03-23T05:03:31;7.05;;;3.22;;
67902;SDS011;54708;43.612;1.568;2024-03-23T05:05:57;6.53;;;2.85;;
67902;SDS011;54708;43.612;1.568;2024-03-23T05:08:23;6.45;;;3.80;;
67902;SDS011;54708;43.612;1.568;2024-03-23T05:10:48;3.72;;;3.05;;
67902;SDS011;54708;43.612;1.568;2024-03-23T05:13:14;7.13;;;2.60;;
67902;SDS011;54708;43.612;1.568;2024-03-23T05:15:39;9.23;;;3.60;;
67902;SDS011;54708;43.612;1.568;2024-03-23T05:18:05;7.45;;;3.20;;
67902;SDS011;54708;43.612;1.568;2024-03-23T05:20:31;6.82;;;2.45;;
67902;SDS011;54708;43.612;1.568;2024-03-23T05:22:56;6.82;;;3.72;;
67902;SDS011;54708;43.612;1.568;2024-03-23T05:25:22;8.60;;;3.47;;
67902;SDS011;54708;43.612;1.568;2024-03-23T05:27:47;3.83;;;3.00;;
67902;SDS011;54708;43.612;1.568;2024-03-23T05:30:13;4.68;;;2.50;;
67902;SDS011;54708;43.612;1.568;2024-03-23T05:32:39;11.02;;;3.08;;
67902;SDS011;54708;43.612;1.568;2024-03-23T05:35:06;6.05;;;2.67;;
67902;SDS011;54708;43.612;1.568;2024-03-23T05:37:32;6.78;;;4.15;;
67902;SDS011;54708;43.612;1.568;2024-03-23T05:39:59;8.63;;;2.58;;
67902;SDS011;54708;43.612;1.568;2024-03-23T05:42:24;7.80;;;3.33;;
67902;SDS011;54708;43.612;1.568;2024-03-23T05:44:50;9.30;;;3.75;;
67902;SDS011;54708;43.612;1.568;2024-03-23T05:47:15;7.47;;;2.50;;
67902;SDS011;54708;43.612;1.568;2024-03-23T05:49:41;6.28;;;2.90;;
67902;SDS011;54708;43.612;1.568;2024-03-23T05:52:10;7.90;;;2.65;;
67902;SDS011;54708;43.612;1.568;2024-03-23T05:54:36;3.50;;;2.40;;
67902;SDS011;54708;43.612;1.568;2024-03-23T05:57:01;4.07;;;2.83;;
67902;SDS011;54708;43.612;1.568;2024-03-23T05:59:27;6.75;;;3.15;;
67902;SDS011;54708;43.612;1.568;2024-03-23T06:01:53;7.85;;;4.20;;
67902;SDS011;54708;43.612;1.568;2024-03-23T06:04:18;6.85;;;3.10;;
67902;SDS011;54708;43.612;1.568;2024-03-23T06:06:44;4.00;;;2.60;;
67902;SDS011;54708;43.612;1.568;2024-03-23T06:09:09;7.38;;;3.40;;
67902;SDS011;54708;43.612;1.568;2024-03-23T06:11:34;7.05;;;4.00;;
67902;SDS011;54708;43.612;1.568;2024-03-23T06:14:00;13.60;;;2.65;;
67902;SDS011;54708;43.612;1.568;2024-03-23T06:16:25;8.90;;;4.30;;
67902;SDS011;54708;43.612;1.568;2024-03-23T06:18:52;6.22;;;2.75;;
67902;SDS011;54708;43.612;1.568;2024-03-23T06:21:18;5.57;;;3.13;;
67902;SDS011;54708;43.612;1.568;2024-03-23T06:23:44;8.07;;;2.90;;
67902;SDS011;54708;43.612;1.568;2024-03-23T06:26:17;5.47;;;3.03;;
67902;SDS011;54708;43.612;1.568;2024-03-23T06:28:42;4.70;;;2.20;;
67902;SDS011;54708;43.612;1.568;2024-03-23T06:31:11;6.97;;;3.53;;
67902;SDS011;54708;43.612;1.568;2024-03-23T06:33:37;3.45;;;2.65;;
67902;SDS011;54708;43.612;1.568;2024-03-23T06:36:03;6.53;;;3.17;;
67902;SDS011;54708;43.612;1.568;2024-03-23T06:38:29;7.15;;;2.70;;
67902;SDS011;54708;43.612;1.568;2024-03-23T06:40:55;6.30;;;3.25;;
67902;SDS011;54708;43.612;1.568;2024-03-23T06:43:20;6.22;;;2.80;;
67902;SDS011;54708;43.612;1.568;2024-03-23T06:45:52;8.40;;;2.65;;
67902;SDS011;54708;43.612;1.568;2024-03-23T06:48:20;4.50;;;3.20;;
67902;SDS011;54708;43.612;1.568;2024-03-23T06:50:46;8.20;;;3.35;;
67902;SDS011;54708;43.612;1.568;2024-03-23T06:53:12;8.60;;;3.50;;
67902;SDS011;54708;43.612;1.568;2024-03-23T06:55:38;12.75;;;3.60;;
67902;SDS011;54708;43.612;1.568;2024-03-23T06:58:03;9.50;;;3.85;;
67902;SDS011;54708;43.612;1.568;2024-03-23T07:00:29;4.38;;;3.92;;
67902;SDS011;54708;43.612;1.568;2024-03-23T07:02:54;9.20;;;3.75;;
67902;SDS011;54708;43.612;1.568;2024-03-23T07:05:20;8.48;;;3.72;;
67902;SDS011;54708;43.612;1.568;2024-03-23T07:07:45;5.43;;;3.83;;
67902;SDS011;54708;43.612;1.568;2024-03-23T07:10:11;8.18;;;3.58;;
67902;SDS011;54708;43.612;1.568;2024-03-23T07:12:36;7.43;;;4.10;;
67902;SDS011;54708;43.612;1.568;2024-03-23T07:15:02;9.50;;;4.25;;
67902;SDS011;54708;43.612;1.568;2024-03-23T07:17:27;7.63;;;4.18;;
67902;SDS011;54708;43.612;1.568;2024-03-23T07:19:53;7.78;;;3.78;;
67902;SDS011;54708;43.612;1.568;2024-03-23T07:22:18;4.97;;;3.97;;
67902;SDS011;54708;43.612;1.568;2024-03-23T07:24:44;4.93;;;3.35;;
67902;SDS011;54708;43.612;1.568;2024-03-23T07:27:09;8.07;;;4.30;;
67902;SDS011;54708;43.612;1.568;2024-03-23T07:29:37;6.40;;;3.78;;
67902;SDS011;54708;43.612;1.568;2024-03-23T07:32:03;8.65;;;3.92;;
67902;SDS011;54708;43.612;1.568;2024-03-23T07:34:28;5.10;;;3.28;;
67902;SDS011;54708;43.612;1.568;2024-03-23T07:36:54;5.32;;;2.80;;
67902;SDS011;54708;43.612;1.568;2024-03-23T07:39:19;2.92;;;1.65;;
67902;SDS011;54708;43.612;1.568;2024-03-23T07:41:45;2.70;;;1.65;;
67902;SDS011;54708;43.612;1.568;2024-03-23T07:44:10;1.48;;;0.90;;
67902;SDS011;54708;43.612;1.568;2024-03-23T07:46:36;1.60;;;1.00;;
67902;SDS011;54708;43.612;1.568;2024-03-23T07:49:01;2.25;;;0.88;;
67902;SDS011;54708;43.612;1.568;2024-03-23T07:51:26;2.67;;;0.80;;
67902;SDS011;54708;43.612;1.568;2024-03-23T07:53:52;0.85;;;0.73;;
67902;SDS011;54708;43.612;1.568;2024-03-23T07:56:18;0.90;;;0.70;;
67902;SDS011;54708;43.612;1.568;2024-03-23T07:58:44;2.72;;;1.00;;
67902;SDS011;54708;43.612;1.568;2024-03-23T08:01:19;1.58;;;0.95;;
67902;SDS011;54708;43.612;1.568;2024-03-23T08:03:45;2.35;;;0.82;;
67902;SDS011;54708;43.612;1.568;2024-03-23T08:06:12;1.17;;;1.08;;
67902;SDS011;54708;43.612;1.568;2024-03-23T08:08:37;0.93;;;0.77;;
67902;SDS011;54708;43.612;1.568;2024-03-23T08:11:03;0.82;;;0.80;;
67902;SDS011;54708;43.612;1.568;2024-03-23T08:13:29;2.35;;;0.90;;
67902;SDS011;54708;43.612;1.568;2024-03-23T08:15:58;2.50;;;0.73;;
67902;SDS011;54708;43.612;1.568;2024-03-23T08:18:27;1.52;;;1.10;;
67902;SDS011;54708;43.612;1.568;2024-03-23T08:20:59;7.53;;;2.05;;
67902;SDS011;54708;43.612;1.568;2024-03-23T08:23:29;4.85;;;1.75;;
67902;SDS011;54708;43.612;1.568;2024-03-23T08:25:59;10.90;;;2.00;;
67902;SDS011;54708;43.612;1.568;2024-03-23T08:28:25;2.55;;;1.60;;
67902;SDS011;54708;43.612;1.568;2024-03-23T08:30:52;9.73;;;1.90;;
67902;SDS011;54708;43.612;1.568;2024-03-23T08:33:17;6.32;;;2.05;;
67902;SDS011;54708;43.612;1.568;2024-03-23T08:35:43;17.60;;;3.08;;
67902;SDS011;54708;43.612;1.568;2024-03-23T08:38:18;5.47;;;2.13;;
67902;SDS011;54708;43.612;1.568;2024-03-23T08:40:43;8.80;;;2.80;;
67902;SDS011;54708;43.612;1.568;2024-03-23T08:43:09;5.22;;;2.08;;
67902;SDS011;54708;43.612;1.568;2024-03-23T08:45:34;9.63;;;2.55;;
67902;SDS011;54708;43.612;1.568;2024-03-23T08:47:59;10.27;;;2.03;;
67902;SDS011;54708;43.612;1.568;2024-03-23T08:50:25;6.20;;;2.03;;
67902;SDS011;54708;43.612;1.568;2024-03-23T08:52:50;13.95;;;3.95;;
67902;SDS011;54708;43.612;1.568;2024-03-23T08:55:16;6.30;;;2.10;;
67902;SDS011;54708;43.612;1.568;2024-03-23T08:57:41;11.07;;;2.80;;
67902;SDS011;54708;43.612;1.568;2024-03-23T09:00:07;9.38;;;3.45;;
67902;SDS011;54708;43.612;1.568;2024-03-23T09:02:34;10.30;;;2.45;;
67902;SDS011;54708;43.612;1.568;2024-03-23T09:04:59;16.95;;;3.10;;
67902;SDS011;54708;43.612;1.568;2024-03-23T09:07:32;8.90;;;2.97;;
67902;SDS011;54708;43.612;1.568;2024-03-23T09:09:57;16.27;;;3.28;;
67902;SDS011;54708;43.612;1.568;2024-03-23T09:12:23;7.40;;;2.50;;
67902;SDS011;54708;43.612;1.568;2024-03-23T09:14:49;10.88;;;2.30;;
67902;SDS011;54708;43.612;1.568;2024-03-23T09:17:15;8.23;;;2.45;;
67902;SDS011;54708;43.612;1.568;2024-03-23T09:19:41;7.68;;;2.42;;
67902;SDS011;54708;43.612;1.568;2024-03-23T09:22:06;29.23;;;4.38;;
67902;SDS011;54708;43.612;1.568;2024-03-23T09:24:31;10.65;;;3.13;;
67902;SDS011;54708;43.612;1.568;2024-03-23T09:26:57;11.40;;;3.20;;
67902;SDS011;54708;43.612;1.568;2024-03-23T09:29:22;10.65;;;2.88;;
67902;SDS011;54708;43.612;1.568;2024-03-23T09:31:48;9.15;;;3.58;;
67902;SDS011;54708;43.612;1.568;2024-03-23T09:34:13;7.40;;;1.60;;
67902;SDS011;54708;43.612;1.568;2024-03-23T09:36:39;11.60;;;2.72;;
67902;SDS011;54708;43.612;1.568;2024-03-23T09:39:04;8.25;;;2.20;;
67902;SDS011;54708;43.612;1.568;2024-03-23T09:41:30;11.45;;;2.38;;
67902;SDS011;54708;43.612;1.568;2024-03-23T09:43:56;9.80;;;2.65;;
67902;SDS011;54708;43.612;1.568;2024-03-23T09:46:21;8.95;;;3.72;;
67902;SDS011;54708;43.612;1.568;2024-03-23T09:48:47;10.68;;;2.38;;
67902;SDS011;54708;43.612;1.568;2024-03-23T09:51:12;12.07;;;2.30;;
67902;SDS011;54708;43.612;1.568;2024-03-23T09:53:37;11.93;;;2.53;;
67902;SDS011;54708;43.612;1.568;2024-03-23T09:56:04;11.10;;;2.30;;
67902;SDS011;54708;43.612;1.568;2024-03-23T09:58:29;6.05;;;2.20;;
67902;SDS011;54708;43.612;1.568;2024-03-23T10:00:54;6.90;;;2.00;;
67902;SDS011;54708;43.612;1.568;2024-03-23T10:03:20;11.35;;;2.55;;
67902;SDS011;54708;43.612;1.568;2024-03-23T10:05:45;8.73;;;2.55;;
67902;SDS011;54708;43.612;1.568;2024-03-23T10:10:39;10.32;;;2.22;;
67902;SDS011;54708;43.612;1.568;2024-03-23T10:13:08;9.75;;;2.65;;
67902;SDS011;54708;43.612;1.568;2024-03-23T10:15:35;6.53;;;2.63;;
67902;SDS011;54708;43.612;1.568;2024-03-23T10:18:34;5.32;;;1.85;;
67902;SDS011;54708;43.612;1.568;2024-03-23T10:21:06;4.85;;;2.45;;
67902;SDS011;54708;43.612;1.568;2024-03-23T10:23:33;6.40;;;1.83;;
67902;SDS011;54708;43.612;1.568;2024-03-23T10:31:23;7.78;;;2.05;;
67902;SDS011;54708;43.612;1.568;2024-03-23T10:33:49;6.05;;;1.80;;
67902;SDS011;54708;43.612;1.568;2024-03-23T10:36:14;6.82;;;2.58;;
67902;SDS011;54708;43.612;1.568;2024-03-23T10:38:41;3.53;;;1.80;;
67902;SDS011;54708;43.612;1.568;2024-03-23T10:41:08;2.83;;;1.63;;
67902;SDS011;54708;43.612;1.568;2024-03-23T10:43:37;6.15;;;1.85;;
67902;SDS011;54708;43.612;1.568;2024-03-23T10:46:03;8.48;;;1.65;;
67902;SDS011;54708;43.612;1.568;2024-03-23T10:48:29;6.93;;;1.98;;
67902;SDS011;54708;43.612;1.568;2024-03-23T10:50:54;6.38;;;1.67;;
67902;SDS011;54708;43.612;1.568;2024-03-23T10:53:25;9.25;;;1.90;;
67902;SDS011;54708;43.612;1.568;2024-03-23T10:55:51;3.63;;;1.83;;
67902;SDS011;54708;43.612;1.568;2024-03-23T10:58:18;5.68;;;1.92;;
67902;SDS011;54708;43.612;1.568;2024-03-23T11:00:44;7.40;;;3.72;;
67902;SDS011;54708;43.612;1.568;2024-03-23T11:05:57;4.57;;;1.70;;
67902;SDS011;54708;43.612;1.568;2024-03-23T11:08:32;7.13;;;2.05;;
67902;SDS011;54708;43.612;1.568;2024-03-23T11:13:59;4.20;;;2.35;;
67902;SDS011;54708;43.612;1.568;2024-03-23T11:18:53;4.75;;;1.60;;
67902;SDS011;54708;43.612;1.568;2024-03-23T11:24:17;8.25;;;1.60;;
67902;SDS011;54708;43.612;1.568;2024-03-23T11:26:43;6.75;;;1.63;;
67902;SDS011;54708;43.612;1.568;2024-03-23T11:29:13;4.57;;;1.50;;
67902;SDS011;54708;43.612;1.568;2024-03-23T11:31:45;3.92;;;1.48;;
67902;SDS011;54708;43.612;1.568;2024-03-23T11:36:37;3.80;;;1.30;;
67902;SDS011;54708;43.612;1.568;2024-03-23T11:39:12;4.05;;;1.38;;
67902;SDS011;54708;43.612;1.568;2024-03-23T11:41:51;7.75;;;3.05;;
67902;SDS011;54708;43.612;1.568;2024-03-23T11:44:18;6.45;;;1.30;;
67902;SDS011;54708;43.612;1.568;2024-03-23T11:46:44;3.50;;;1.60;;
67902;SDS011;54708;43.612;1.568;2024-03-23T11:49:19;7.03;;;1.40;;
67902;SDS011;54708;43.612;1.568;2024-03-23T11:51:48;4.22;;;1.85;;
67902;SDS011;54708;43.612;1.568;2024-03-23T11:54:14;3.63;;;1.33;;
67902;SDS011;54708;43.612;1.568;2024-03-23T11:56:39;3.20;;;1.70;;
67902;SDS011;54708;43.612;1.568;2024-03-23T11:59:06;3.90;;;1.13;;
67902;SDS011;54708;43.612;1.568;2024-03-23T12:01:31;5.68;;;1.55;;
67902;SDS011;54708;43.612;1.568;2024-03-23T12:03:57;3.15;;;1.95;;
67902;SDS011;54708;43.612;1.568;2024-03-23T12:06:22;3.33;;;1.40;;
67902;SDS011;54708;43.612;1.568;2024-03-23T12:08:47;5.03;;;1.20;;
67902;SDS011;54708;43.612;1.568;2024-03-23T12:11:14;3.53;;;0.93;;
67902;SDS011;54708;43.612;1.568;2024-03-23T12:13:41;2.97;;;1.17;;
67902;SDS011;54708;43.612;1.568;2024-03-23T12:18:37;2.92;;;1.30;;
67902;SDS011;54708;43.612;1.568;2024-03-23T12:21:05;3.83;;;1.15;;
67902;SDS011;54708;43.612;1.568;2024-03-23T12:23:31;3.50;;;0.70;;
67902;SDS011;54708;43.612;1.568;2024-03-23T12:25:57;2.35;;;1.35;;
67902;SDS011;54708;43.612;1.568;2024-03-23T12:28:23;3.08;;;0.82;;
67902;SDS011;54708;43.612;1.568;2024-03-23T12:30:48;5.50;;;2.25;;
67902;SDS011;54708;43.612;1.568;2024-03-23T12:33:14;4.97;;;1.00;;
67902;SDS011;54708;43.612;1.568;2024-03-23T12:35:39;3.05;;;0.95;;
67902;SDS011;54708;43.612;1.568;2024-03-23T12:38:04;1.38;;;0.77;;
67902;SDS011;54708;43.612;1.568;2024-03-23T12:40:30;4.03;;;1.30;;
67902;SDS011;54708;43.612;1.568;2024-03-23T12:42:55;6.20;;;1.95;;
67902;SDS011;54708;43.612;1.568;2024-03-23T12:45:21;2.28;;;0.85;;
67902;SDS011;54708;43.612;1.568;2024-03-23T12:47:47;3.83;;;1.23;;
67902;SDS011;54708;43.612;1.568;2024-03-23T12:50:12;1.83;;;0.85;;
67902;SDS011;54708;43.612;1.568;2024-03-23T12:52:38;4.22;;;0.98;;
67902;SDS011;54708;43.612;1.568;2024-03-23T12:55:03;5.03;;;1.10;;
67902;SDS011;54708;43.612;1.568;2024-03-23T12:57:32;4.07;;;0.90;;
67902;SDS011;54708;43.612;1.568;2024-03-23T12:59:58;5.00;;;1.20;;
67902;SDS011;54708;43.612;1.568;2024-03-23T13:02:23;4.05;;;1.08;;
67902;SDS011;54708;43.612;1.568;2024-03-23T13:04:49;3.67;;;0.90;;
67902;SDS011;54708;43.612;1.568;2024-03-23T13:07:15;5.35;;;1.30;;
67902;SDS011;54708;43.612;1.568;2024-03-23T13:09:41;2.13;;;1.40;;
67902;SDS011;54708;43.612;1.568;2024-03-23T13:12:07;5.35;;;1.10;;
67902;SDS011;54708;43.612;1.568;2024-03-23T13:14:32;5.72;;;1.65;;
67902;SDS011;54708;43.612;1.568;2024-03-23T13:16:58;3.42;;;1.40;;
67902;SDS011;54708;43.612;1.568;2024-03-23T13:19:24;3.05;;;1.38;;
67902;SDS011;54708;43.612;1.568;2024-03-23T13:21:52;2.55;;;1.20;;
67902;SDS011;54708;43.612;1.568;2024-03-23T13:24:21;4.25;;;1.00;;
67902;SDS011;54708;43.612;1.568;2024-03-23T13:26:47;3.72;;;1.20;;
67902;SDS011;54708;43.612;1.568;2024-03-23T13:29:13;4.05;;;1.25;;
67902;SDS011;54708;43.612;1.568;2024-03-23T13:31:38;6.50;;;1.27;;
67902;SDS011;54708;43.612;1.568;2024-03-23T13:34:03;3.85;;;1.00;;
67902;SDS011;54708;43.612;1.568;2024-03-23T13:36:29;3.63;;;1.40;;
67902;SDS011;54708;43.612;1.568;2024-03-23T13:38:54;5.68;;;1.17;;
67902;SDS011;54708;43.612;1.568;2024-03-23T13:41:20;3.13;;;1.00;;
67902;SDS011;54708;43.612;1.568;2024-03-23T13:43:45;3.42;;;1.30;;
67902;SDS011;54708;43.612;1.568;2024-03-23T13:46:10;2.70;;;1.27;;
67902;SDS011;54708;43.612;1.568;2024-03-23T13:48:36;4.40;;;2.30;;
67902;SDS011;54708;43.612;1.568;2024-03-23T13:51:04;5.13;;;1.27;;
67902;SDS011;54708;43.612;1.568;2024-03-23T13:53:30;4.43;;;1.63;;
67902;SDS011;54708;43.612;1.568;2024-03-23T13:55:56;4.45;;;1.60;;
67902;SDS011;54708;43.612;1.568;2024-03-23T13:58:21;9.45;;;1.52;;
67902;SDS011;54708;43.612;1.568;2024-03-23T14:00:48;3.38;;;1.10;;
67902;SDS011;54708;43.612;1.568;2024-03-23T14:03:14;3.95;;;1.20;;
67902;SDS011;54708;43.612;1.568;2024-03-23T14:05:40;4.32;;;1.45;;
67902;SDS011;54708;43.612;1.568;2024-03-23T14:10:32;8.70;;;2.28;;
67902;SDS011;54708;43.612;1.568;2024-03-23T14:12:57;4.50;;;1.27;;
67902;SDS011;54708;43.612;1.568;2024-03-23T14:15:24;6.97;;;1.30;;
67902;SDS011;54708;43.612;1.568;2024-03-23T14:17:51;6.32;;;1.38;;
67902;SDS011;54708;43.612;1.568;2024-03-23T14:20:16;4.82;;;1.75;;
67902;SDS011;54708;43.612;1.568;2024-03-23T14:22:41;5.63;;;1.30;;
67902;SDS011;54708;43.612;1.568;2024-03-23T14:25:08;5.65;;;1.55;;
67902;SDS011;54708;43.612;1.568;2024-03-23T14:27:34;7.50;;;1.73;;
67902;SDS011;54708;43.612;1.568;2024-03-23T14:30:02;2.85;;;1.17;;
67902;SDS011;54708;43.612;1.568;2024-03-23T14:32:30;2.30;;;1.20;;
67902;SDS011;54708;43.612;1.568;2024-03-23T14:34:59;3.13;;;1.30;;
67902;SDS011;54708;43.612;1.568;2024-03-23T14:37:25;4.93;;;1.48;;
67902;SDS011;54708;43.612;1.568;2024-03-23T14:39:50;2.67;;;1.33;;
67902;SDS011;54708;43.612;1.568;2024-03-23T14:42:16;3.47;;;1.63;;
67902;SDS011;54708;43.612;1.568;2024-03-23T14:44:41;4.63;;;1.50;;
67902;SDS011;54708;43.612;1.568;2024-03-23T14:47:07;4.65;;;1.52;;
67902;SDS011;54708;43.612;1.568;2024-03-23T14:49:32;4.55;;;1.50;;
67902;SDS011;54708;43.612;1.568;2024-03-23T14:51:58;6.53;;;1.38;;
67902;SDS011;54708;43.612;1.568;2024-03-23T14:54:23;8.27;;;1.92;;
67902;SDS011;54708;43.612;1.568;2024-03-23T14:56:49;5.53;;;1.27;;
67902;SDS011;54708;43.612;1.568;2024-03-23T14:59:15;8.40;;;2.20;;
67902;SDS011;54708;43.612;1.568;2024-03-23T15:01:40;8.18;;;3.00;;
67902;SDS011;54708;43.612;1.568;2024-03-23T15:04:06;6.63;;;1.40;;
67902;SDS011;54708;43.612;1.568;2024-03-23T15:06:32;5.43;;;2.17;;
67902;SDS011;54708;43.612;1.568;2024-03-23T15:08:59;4.90;;;1.60;;
67902;SDS011;54708;43.612;1.568;2024-03-23T15:11:24;7.55;;;1.67;;
67902;SDS011;54708;43.612;1.568;2024-03-23T15:13:49;5.03;;;1.60;;
67902;SDS011;54708;43.612;1.568;2024-03-23T15:16:18;4.68;;;1.40;;
67902;SDS011;54708;43.612;1.568;2024-03-23T15:18:46;7.65;;;2.15;;
67902;SDS011;54708;43.612;1.568;2024-03-23T15:21:12;6.43;;;1.83;;
67902;SDS011;54708;43.612;1.568;2024-03-23T15:23:39;8.60;;;2.13;;
67902;SDS011;54708;43.612;1.568;2024-03-23T15:26:04;15.45;;;2.40;;
67902;SDS011;54708;43.612;1.568;2024-03-23T15:28:31;7.50;;;1.65;;
67902;SDS011;54708;43.612;1.568;2024-03-23T15:31:09;6.53;;;1.55;;
67902;SDS011;54708;43.612;1.568;2024-03-23T15:33:35;7.63;;;1.77;;
67902;SDS011;54708;43.612;1.568;2024-03-23T15:36:04;6.15;;;1.98;;
67902;SDS011;54708;43.612;1.568;2024-03-23T15:38:33;7.65;;;1.70;;
67902;SDS011;54708;43.612;1.568;2024-03-23T15:40:58;4.90;;;1.63;;
67902;SDS011;54708;43.612;1.568;2024-03-23T15:43:24;5.20;;;1.70;;
67902;SDS011;54708;43.612;1.568;2024-03-23T15:45:56;5.53;;;1.75;;
67902;SDS011;54708;43.612;1.568;2024-03-23T15:48:25;3.28;;;1.10;;
67902;SDS011;54708;43.612;1.568;2024-03-23T15:50:54;3.22;;;1.30;;
67902;SDS011;54708;43.612;1.568;2024-03-23T15:53:20;4.43;;;1.65;;
67902;SDS011;54708;43.612;1.568;2024-03-23T15:56:07;9.90;;;1.70;;
67902;SDS011;54708;43.612;1.568;2024-03-23T15:58:32;3.28;;;1.38;;